Time;durP1;ratioP1;P1;durP2;ratioP2;P2;SDS_P1;SDS_P2;PMS_P1;PMS_P2;Temp;Humidity;BMP_temperature;BMP_pressure;BME280_temperature;BME280_humidity;BME280_pressure;Samples;Min_cycle;Max_cycle;Signal;HPM_P1;HPM_P2
2023/11/21 00:01:12;;;;;;;;;;;;;;;7.43;100.00;100087.31;5046180;28;20367;-61
2023/11/21 00:03:40;;;;;;;;;;;;;;;7.41;100.00;100094.38;5049288;28;19929;-62
2023/11/21 00:06:08;;;;;;;;;;;;;;;7.38;100.00;100091.06;5050467;28;20040;-62
2023/11/21 00:08:36;;;;;;;;;;;;;;;7.27;100.00;100094.28;5049471;28;20074;-62
2023/11/21 00:11:05;;;;;;;;;;;;;;;7.26;100.00;100096.06;5047536;28;20410;-62
2023/11/21 00:13:32;;;;;;;;;;;;;;;7.24;100.00;100103.13;5047752;28;19960;-62
2023/11/21 00:15:59;;;;;;;;;;;;;;;7.22;100.00;100107.63;5046090;28;20016;-62
2023/11/21 00:18:26;;;;;;;;;;;;;;;7.20;100.00;100109.47;5048231;28;20024;-61
2023/11/21 00:20:53;;;;;;;;;;;;;;;7.18;100.00;100106.09;5050519;28;19924;-61
2023/11/21 00:23:20;;;;;;;;;;;;;;;7.15;100.00;100108.84;5055893;28;19964;-62
2023/11/21 00:25:47;;;;;;;;;;;;;;;7.09;100.00;100110.03;5048703;28;20019;-62
2023/11/21 00:28:15;;;;;;;;;;;;;;;7.01;100.00;100117.44;5046859;28;20019;-62
2023/11/21 00:30:42;;;;;;;;;;;;;;;7.00;100.00;100114.91;5048222;28;20019;-64
2023/11/21 00:33:09;;;;;;;;;;;;;;;6.98;100.00;100122.84;5046004;28;19924;-60
2023/11/21 00:35:36;;;;;;;;;;;;;;;6.95;100.00;100115.16;5046896;28;19967;-61
2023/11/21 00:38:03;;;;;;;;;;;;;;;6.95;100.00;100127.41;5051080;28;19959;-61
2023/11/21 00:40:30;;;;;;;;;;;;;;;6.93;100.00;100130.06;5055302;28;19925;-65
2023/11/21 00:42:58;;;;;;;;;;;;;;;6.88;100.00;100132.09;5054393;28;19995;-63
2023/11/21 00:45:25;;;;;;;;;;;;;;;6.81;100.00;100128.94;5046815;28;19933;-61
2023/11/21 00:47:52;;;;;;;;;;;;;;;6.81;100.00;100136.81;5047624;28;20466;-62
2023/11/21 00:50:19;;;;;;;;;;;;;;;6.76;100.00;100136.19;5043683;28;19991;-58
2023/11/21 00:52:46;;;;;;;;;;;;;;;6.68;100.00;100140.13;5051752;28;20052;-62
2023/11/21 00:55:13;;;;;;;;;;;;;;;6.71;100.00;100139.94;5044993;28;20427;-59
2023/11/21 00:57:40;;;;;;;;;;;;;;;6.67;100.00;100141.06;5052296;28;20028;-61
2023/11/21 01:00:13;;;;;;;;;;;;;;;6.61;100.00;100139.56;5048082;28;20011;-62
2023/11/21 01:02:40;;;;;;;;;;;;;;;6.59;100.00;100144.88;5050617;28;20031;-59
2023/11/21 01:05:07;;;;;;;;;;;;;;;6.60;100.00;100157.03;5052247;28;19963;-58
2023/11/21 01:07:36;;;;;;;;;;;;;;;6.59;100.00;100149.28;5051461;28;19936;-62
2023/11/21 01:10:07;;;;;;;;;;;;;;;6.55;100.00;100153.81;5042859;28;19964;-60
2023/11/21 01:12:35;;;;;;;;;;;;;;;6.52;100.00;100153.94;5046583;28;19956;-61
2023/11/21 01:15:02;;;;;;;;;;;;;;;6.44;100.00;100158.72;5041641;28;20029;-60
2023/11/21 01:17:29;;;;;;;;;;;;;;;6.41;100.00;100163.25;5041452;28;19965;-60
2023/11/21 01:19:57;;;;;;;;;;;;;;;6.39;100.00;100165.94;5043937;28;19928;-60
2023/11/21 01:22:26;;;;;;;;;;;;;;;6.39;100.00;100170.31;5047188;28;20367;-61
2023/11/21 01:24:53;;;;;;;;;;;;;;;6.40;100.00;100172.03;5048764;28;19948;-61
2023/11/21 01:27:20;;;;;;;;;;;;;;;6.40;100.00;100170.25;5047246;28;20036;-63
2023/11/21 01:29:47;;;;;;;;;;;;;;;6.39;100.00;100183.38;5047585;28;19924;-63
2023/11/21 01:32:14;;;;;;;;;;;;;;;6.33;100.00;100184.53;5049145;28;19983;-60
2023/11/21 01:34:41;;;;;;;;;;;;;;;6.33;100.00;100182.78;5049061;28;19925;-63
2023/11/21 01:37:11;;;;;;;;;;;;;;;6.31;100.00;100192.47;5045242;28;19964;-62
2023/11/21 01:39:40;;;;;;;;;;;;;;;6.29;100.00;100188.22;5050322;28;19928;-63
2023/11/21 01:42:07;;;;;;;;;;;;;;;6.28;100.00;100181.31;5044549;28;19967;-61
2023/11/21 01:44:34;;;;;;;;;;;;;;;6.28;100.00;100189.16;5042522;28;20067;-63
2023/11/21 01:47:05;;;;;;;;;;;;;;;6.29;100.00;100191.69;5047371;28;19968;-62
2023/11/21 01:49:33;;;;;;;;;;;;;;;6.28;100.00;100187.38;5049512;28;19924;-64
2023/11/21 01:52:00;;;;;;;;;;;;;;;6.24;100.00;100190.22;5049003;28;19997;-62
2023/11/21 01:54:29;;;;;;;;;;;;;;;6.20;100.00;100196.50;5042463;28;20518;-62
2023/11/21 01:56:56;;;;;;;;;;;;;;;6.16;100.00;100208.03;5045449;28;19986;-62
2023/11/21 01:59:23;;;;;;;;;;;;;;;6.13;100.00;100200.34;5046022;28;19972;-62
2023/11/21 02:01:50;;;;;;;;;;;;;;;6.07;100.00;100207.53;5048412;28;20481;-62
2023/11/21 02:04:17;;;;;;;;;;;;;;;6.10;100.00;100203.94;5051610;28;19924;-63
2023/11/21 02:06:45;;;;;;;;;;;;;;;6.04;100.00;100199.00;5047031;28;20008;-63
2023/11/21 02:09:15;;;;;;;;;;;;;;;6.03;100.00;100216.47;5047977;28;19956;-62
2023/11/21 02:11:42;;;;;;;;;;;;;;;6.03;100.00;100213.84;5053225;28;19959;-62
2023/11/21 02:14:09;;;;;;;;;;;;;;;5.99;100.00;100216.63;5047539;28;19999;-61
2023/11/21 02:16:36;;;;;;;;;;;;;;;5.96;100.00;100214.19;5046742;28;19998;-62
2023/11/21 02:19:03;;;;;;;;;;;;;;;5.94;100.00;100218.63;5052760;28;20063;-61
2023/11/21 02:21:31;;;;;;;;;;;;;;;5.93;100.00;100228.22;5043728;28;19982;-61
2023/11/21 02:23:58;;;;;;;;;;;;;;;5.92;100.00;100228.31;5052952;28;19925;-61
2023/11/21 02:26:25;;;;;;;;;;;;;;;5.89;100.00;100223.19;5052914;28;20019;-60
2023/11/21 02:28:53;;;;;;;;;;;;;;;5.89;100.00;100215.34;5049105;28;19956;-62
2023/11/21 02:31:20;;;;;;;;;;;;;;;5.89;100.00;100221.41;5048559;28;19999;-62
2023/11/21 02:33:47;;;;;;;;;;;;;;;5.89;100.00;100221.41;5052843;28;20025;-63
2023/11/21 02:36:14;;;;;;;;;;;;;;;5.88;100.00;100227.56;5050864;28;20379;-56
2023/11/21 02:38:41;;;;;;;;;;;;;;;5.92;100.00;100233.53;5057353;28;19971;-63
2023/11/21 02:41:08;;;;;;;;;;;;;;;5.93;100.00;100232.63;5062784;28;19986;-62
2023/11/21 02:43:36;;;;;;;;;;;;;;;5.90;100.00;100237.94;5053137;28;19925;-62
2023/11/21 02:46:03;;;;;;;;;;;;;;;5.91;100.00;100237.88;5049565;28;19931;-62
2023/11/21 02:48:30;;;;;;;;;;;;;;;5.89;100.00;100234.47;5047107;28;20008;-62
2023/11/21 02:50:57;;;;;;;;;;;;;;;5.88;100.00;100238.00;5048566;28;20383;-62
2023/11/21 02:53:24;;;;;;;;;;;;;;;5.80;100.00;100233.13;5046885;28;19971;-63
2023/11/21 02:55:51;;;;;;;;;;;;;;;5.82;100.00;100235.69;5051381;28;19972;-62
2023/11/21 02:58:18;;;;;;;;;;;;;;;5.75;100.00;100234.25;5055379;28;20014;-62
2023/11/21 03:00:46;;;;;;;;;;;;;;;5.74;100.00;100238.66;5053104;28;19933;-61
2023/11/21 03:03:14;;;;;;;;;;;;;;;5.72;100.00;100234.41;5053384;28;19925;-61
2023/11/21 03:05:41;;;;;;;;;;;;;;;5.70;100.00;100247.53;5052554;28;19967;-63
2023/11/21 03:08:08;;;;;;;;;;;;;;;5.70;100.00;100241.47;5055128;28;20244;-64
2023/11/21 03:10:35;;;;;;;;;;;;;;;5.68;100.00;100245.94;5049803;28;20015;-62
2023/11/21 03:13:02;;;;;;;;;;;;;;;5.66;100.00;100245.13;5054255;28;20015;-61
2023/11/21 03:15:29;;;;;;;;;;;;;;;5.70;100.00;100251.91;5048227;28;20399;-61
2023/11/21 03:17:57;;;;;;;;;;;;;;;5.70;100.00;100249.28;5045499;28;19987;-62
2023/11/21 03:20:25;;;;;;;;;;;;;;;5.69;100.00;100256.28;5049908;28;20035;-61
2023/11/21 03:22:52;;;;;;;;;;;;;;;5.68;100.00;100258.97;5051237;28;19960;-62
2023/11/21 03:25:19;;;;;;;;;;;;;;;5.65;100.00;100259.94;5043511;28;20023;-61
2023/11/21 03:27:47;;;;;;;;;;;;;;;5.65;100.00;100259.09;5053232;28;19971;-62
2023/11/21 03:30:14;;;;;;;;;;;;;;;5.64;100.00;100266.09;5045186;28;20488;-62
2023/11/21 03:32:41;;;;;;;;;;;;;;;5.65;100.00;100275.63;5046263;28;19971;-62
2023/11/21 03:35:08;;;;;;;;;;;;;;;5.66;100.00;100279.06;5054733;28;20003;-61
2023/11/21 03:37:38;;;;;;;;;;;;;;;5.65;100.00;100280.84;5054206;28;19999;-62
2023/11/21 03:40:05;;;;;;;;;;;;;;;5.66;100.00;100284.28;5052227;28;19929;-62
2023/11/21 03:42:32;;;;;;;;;;;;;;;5.66;100.00;100282.53;5047859;28;22004;-63
2023/11/21 03:44:59;;;;;;;;;;;;;;;5.68;100.00;100287.72;5042964;28;20537;-62
2023/11/21 03:47:27;;;;;;;;;;;;;;;5.65;100.00;100286.06;5041824;28;20443;-62
2023/11/21 03:49:54;;;;;;;;;;;;;;;5.67;100.00;100294.66;5049784;28;20023;-62
2023/11/21 03:52:21;;;;;;;;;;;;;;;5.68;100.00;100288.56;5046831;28;20008;-63
2023/11/21 03:54:48;;;;;;;;;;;;;;;5.68;100.00;100292.94;5052575;28;19925;-62
2023/11/21 03:57:16;;;;;;;;;;;;;;;5.63;100.00;100293.13;5044225;28;20395;-62
2023/11/21 03:59:43;;;;;;;;;;;;;;;5.51;100.00;100314.53;5058979;28;19970;-60
2023/11/21 04:02:10;;;;;;;;;;;;;;;5.47;100.00;100308.59;5052155;28;19935;-62
2023/11/21 04:04:37;;;;;;;;;;;;;;;5.44;100.00;100307.88;5035739;28;19966;-61
2023/11/21 04:07:04;;;;;;;;;;;;;;;5.41;100.00;100313.25;5048435;28;19933;-62
2023/11/21 04:09:32;;;;;;;;;;;;;;;5.42;100.00;100320.16;5048654;28;20009;-62
2023/11/21 04:11:59;;;;;;;;;;;;;;;5.40;100.00;100317.59;5051116;28;19924;-63
2023/11/21 04:14:26;;;;;;;;;;;;;;;5.33;100.00;100318.78;5049088;28;19998;-62
2023/11/21 04:16:53;;;;;;;;;;;;;;;5.33;100.00;100319.63;5052525;28;19955;-60
2023/11/21 04:19:21;;;;;;;;;;;;;;;5.30;100.00;100324.13;5055251;28;20071;-64
2023/11/21 04:21:48;;;;;;;;;;;;;;;5.26;100.00;100326.00;5055580;28;20399;-61
2023/11/21 04:24:15;;;;;;;;;;;;;;;5.27;100.00;100325.13;5062845;22;20099;-57
2023/11/21 04:26:45;;;;;;;;;;;;;;;5.24;100.00;100334.84;5043955;28;20010;-57
2023/11/21 04:29:12;;;;;;;;;;;;;;;5.20;100.00;100343.69;5047498;28;20015;-54
2023/11/21 04:31:39;;;;;;;;;;;;;;;5.24;100.00;100337.44;5051236;28;20016;-54
2023/11/21 04:34:08;;;;;;;;;;;;;;;5.25;100.00;100337.38;5056727;28;19947;-54
2023/11/21 04:36:34;;;;;;;;;;;;;;;5.22;100.00;100336.63;5053776;28;19959;-55
2023/11/21 04:39:02;;;;;;;;;;;;;;;5.23;100.00;100341.81;5051001;28;20523;-52
2023/11/21 04:41:29;;;;;;;;;;;;;;;5.19;100.00;100353.28;5055113;28;20017;-53
2023/11/21 04:43:56;;;;;;;;;;;;;;;5.21;100.00;100355.81;5049194;28;19964;-53
2023/11/21 04:46:23;;;;;;;;;;;;;;;5.17;100.00;100357.69;5055136;28;19975;-56
2023/11/21 04:48:50;;;;;;;;;;;;;;;5.13;100.00;100356.13;5051165;28;19932;-54
2023/11/21 04:51:17;;;;;;;;;;;;;;;5.12;100.00;100351.81;5045679;28;19925;-55
2023/11/21 04:53:44;;;;;;;;;;;;;;;5.15;100.00;100356.09;5048706;28;19982;-56
2023/11/21 04:56:11;;;;;;;;;;;;;;;5.16;100.00;100363.00;5047996;28;20397;-57
2023/11/21 04:58:39;;;;;;;;;;;;;;;5.07;100.00;100361.59;5048785;28;20060;-55
2023/11/21 05:01:09;;;;;;;;;;;;;;;5.06;100.00;100365.97;5045310;28;19964;-57
2023/11/21 05:03:38;;;;;;;;;;;;;;;5.07;100.00;100362.44;5044808;28;20024;-55
2023/11/21 05:06:05;;;;;;;;;;;;;;;5.08;100.00;100371.13;5041536;28;20408;-56
2023/11/21 05:08:33;;;;;;;;;;;;;;;5.05;100.00;100372.13;5046473;28;20337;-57
2023/11/21 05:11:00;;;;;;;;;;;;;;;5.00;100.00;100383.66;5044044;28;20386;-56
2023/11/21 05:13:27;;;;;;;;;;;;;;;5.03;100.00;100384.34;5046965;28;19940;-56
2023/11/21 05:15:57;;;;;;;;;;;;;;;5.04;100.00;100391.28;5044342;28;20509;-52
2023/11/21 05:18:29;;;;;;;;;;;;;;;5.07;100.00;100391.16;5022717;28;20372;-55
2023/11/21 05:20:57;;;;;;;;;;;;;;;5.08;100.00;100402.44;5044383;28;20363;-55
2023/11/21 05:23:24;;;;;;;;;;;;;;;5.06;100.00;100399.91;5042823;28;19928;-52
2023/11/21 05:25:51;;;;;;;;;;;;;;;5.08;100.00;100400.66;5042654;28;19971;-54
2023/11/21 05:28:19;;;;;;;;;;;;;;;5.07;100.00;100396.38;5045960;28;19925;-54
2023/11/21 05:30:46;;;;;;;;;;;;;;;5.05;100.00;100400.81;5041682;28;20031;-57
2023/11/21 05:33:13;;;;;;;;;;;;;;;5.04;100.00;100400.84;5042786;28;20019;-55
2023/11/21 05:35:40;;;;;;;;;;;;;;;5.08;100.00;100405.88;5036498;28;20047;-54
2023/11/21 05:38:07;;;;;;;;;;;;;;;5.13;100.00;100410.06;5030579;28;19986;-57
2023/11/21 05:40:34;;;;;;;;;;;;;;;5.13;100.00;100417.91;5053751;28;19932;-55
2023/11/21 05:43:01;;;;;;;;;;;;;;;5.09;100.00;100422.41;5056107;28;20018;-56
2023/11/21 05:45:29;;;;;;;;;;;;;;;5.13;100.00;100428.34;5041808;28;20486;-55
2023/11/21 05:47:57;;;;;;;;;;;;;;;5.10;100.00;100428.50;5044348;28;19959;-55
2023/11/21 05:50:24;;;;;;;;;;;;;;;5.06;100.00;100436.44;5045225;28;20040;-58
2023/11/21 05:52:51;;;;;;;;;;;;;;;5.03;100.00;100443.50;5043587;28;19970;-56
2023/11/21 05:55:20;;;;;;;;;;;;;;;5.06;100.00;100441.66;5052516;28;20016;-55
2023/11/21 05:57:47;;;;;;;;;;;;;;;5.07;100.00;100440.72;5047390;28;19968;-56
2023/11/21 06:00:25;;;;;;;;;;;;;;;5.06;100.00;100433.81;5038789;28;19983;-55
2023/11/21 06:02:53;;;;;;;;;;;;;;;5.07;100.00;100437.28;5044187;28;19972;-56
2023/11/21 06:05:23;;;;;;;;;;;;;;;5.07;100.00;100451.16;5020453;28;20019;-55
2023/11/21 06:07:50;;;;;;;;;;;;;;;5.12;100.00;100455.34;5039350;28;19940;-54
2023/11/21 06:10:19;;;;;;;;;;;;;;;5.12;100.00;100460.56;5023994;28;20247;-51
2023/11/21 06:12:46;;;;;;;;;;;;;;;5.11;100.00;100458.88;5043286;28;20455;-52
2023/11/21 06:15:13;;;;;;;;;;;;;;;5.07;100.00;100460.75;5053810;28;20011;-55
2023/11/21 06:17:41;;;;;;;;;;;;;;;5.08;100.00;100465.91;5035485;28;20024;-57
2023/11/21 06:20:09;;;;;;;;;;;;;;;5.05;100.00;100466.03;5053266;28;20415;-57
2023/11/21 06:22:40;;;;;;;;;;;;;;;5.03;100.00;100469.59;5050024;28;19964;-56
2023/11/21 06:25:08;;;;;;;;;;;;;;;4.98;100.00;100480.22;5050083;28;19984;-54
2023/11/21 06:27:38;;;;;;;;;;;;;;;5.00;100.00;100483.63;5028946;28;20031;-56
2023/11/21 06:30:06;;;;;;;;;;;;;;;4.99;100.00;100497.56;5040433;28;20434;-53
2023/11/21 06:32:34;;;;;;;;;;;;;;;4.99;100.00;100484.53;5042561;28;20375;-56
2023/11/21 06:35:04;;;;;;;;;;;;;;;5.02;100.00;100499.22;5046085;28;19964;-57
2023/11/21 06:37:32;;;;;;;;;;;;;;;4.93;100.00;100497.81;5058126;28;20098;-56
2023/11/21 06:39:59;;;;;;;;;;;;;;;4.94;100.00;100503.88;5060487;28;19934;-55
2023/11/21 06:42:26;;;;;;;;;;;;;;;4.95;100.00;100513.38;5052214;28;19982;-55
2023/11/21 06:44:53;;;;;;;;;;;;;;;4.95;100.00;100518.59;5065468;28;19972;-56
2023/11/21 06:47:20;;;;;;;;;;;;;;;4.96;100.00;100521.19;5057919;28;19957;-55
2023/11/21 06:49:48;;;;;;;;;;;;;;;4.94;100.00;100524.75;5059020;28;20004;-55
2023/11/21 06:52:15;;;;;;;;;;;;;;;4.87;100.00;100521.53;5063677;28;19940;-53
2023/11/21 06:54:42;;;;;;;;;;;;;;;4.85;100.00;100523.31;5059464;28;20007;-51
2023/11/21 06:57:09;;;;;;;;;;;;;;;4.89;100.00;100531.88;5064217;28;20003;-55
2023/11/21 06:59:36;;;;;;;;;;;;;;;4.85;100.00;100527.69;5058018;28;20061;-57
2023/11/21 07:02:06;;;;;;;;;;;;;;;4.88;100.00;100531.03;5063163;28;20035;-53
2023/11/21 07:04:33;;;;;;;;;;;;;;;4.89;100.00;100526.66;5056774;28;20003;-58
2023/11/21 07:07:00;;;;;;;;;;;;;;;4.86;100.00;100522.41;5063624;28;20398;-54
2023/11/21 07:09:27;;;;;;;;;;;;;;;4.82;100.00;100526.06;5050415;28;20042;-53
2023/11/21 07:11:55;;;;;;;;;;;;;;;4.79;100.00;100532.22;5057107;28;20019;-56
2023/11/21 07:14:22;;;;;;;;;;;;;;;4.77;100.00;100535.78;5061174;28;20023;-54
2023/11/21 07:16:49;;;;;;;;;;;;;;;4.75;100.00;100533.25;5059323;28;20011;-50
2023/11/21 07:19:16;;;;;;;;;;;;;;;4.72;100.00;100540.31;5052904;28;20290;-53
2023/11/21 07:21:43;;;;;;;;;;;;;;;4.73;100.00;100544.66;5058169;28;20286;-57
2023/11/21 07:24:11;;;;;;;;;;;;;;;4.75;100.00;100543.66;5054644;28;20382;-54
2023/11/21 07:26:38;;;;;;;;;;;;;;;4.70;100.00;100547.38;5059787;28;20016;-55
2023/11/21 07:29:06;;;;;;;;;;;;;;;4.74;100.00;100546.34;5064222;28;20011;-56
2023/11/21 07:31:35;;;;;;;;;;;;;;;4.71;100.00;100538.63;5057375;28;19960;-55
2023/11/21 07:34:02;;;;;;;;;;;;;;;4.71;100.00;100546.44;5058430;28;19963;-55
2023/11/21 07:36:29;;;;;;;;;;;;;;;4.70;100.00;100549.97;5057289;28;19925;-55
2023/11/21 07:38:56;;;;;;;;;;;;;;;4.78;100.00;100559.22;5052296;28;19974;-53
2023/11/21 07:41:23;;;;;;;;;;;;;;;4.78;100.00;100560.97;5058119;28;19971;-56
2023/11/21 07:43:57;;;;;;;;;;;;;;;4.81;100.00;100560.84;5045244;28;19967;-58
2023/11/21 07:46:26;;;;;;;;;;;;;;;4.86;100.00;100555.47;5065979;28;20011;-50
2023/11/21 07:48:53;;;;;;;;;;;;;;;4.84;100.00;100563.34;5057773;28;19928;-56
2023/11/21 07:51:20;;;;;;;;;;;;;;;4.84;100.00;100568.56;5059835;28;20398;-50
2023/11/21 07:53:47;;;;;;;;;;;;;;;4.85;100.00;100567.66;5052981;28;20024;-55
2023/11/21 07:56:14;;;;;;;;;;;;;;;4.82;100.00;100566.03;5056337;28;19971;-54
2023/11/21 07:58:41;;;;;;;;;;;;;;;4.88;100.00;100564.09;5062670;28;20528;-56
2023/11/21 08:01:08;;;;;;;;;;;;;;;4.92;100.00;100576.13;5058147;28;20011;-52
2023/11/21 08:03:35;;;;;;;;;;;;;;;4.93;100.00;100575.22;5058631;28;19939;-54
2023/11/21 08:06:05;;;;;;;;;;;;;;;4.95;100.00;100582.06;5065498;28;20267;-51
2023/11/21 08:08:33;;;;;;;;;;;;;;;4.95;100.00;100592.50;5055305;28;19924;-48
2023/11/21 08:11:01;;;;;;;;;;;;;;;4.95;100.00;100600.31;5061677;28;19974;-50
2023/11/21 08:13:30;;;;;;;;;;;;;;;4.93;100.00;100606.53;5060304;28;19978;-49
2023/11/21 08:16:05;;;;;;;;;;;;;;;4.90;100.00;100606.63;5065021;28;19955;-50
2023/11/21 08:18:32;;;;;;;;;;;;;;;4.90;100.00;100607.47;5052903;28;19968;-49
2023/11/21 08:20:59;;;;;;;;;;;;;;;4.94;100.00;100605.59;5055875;28;19968;-55
2023/11/21 08:23:26;;;;;;;;;;;;;;;4.90;100.00;100602.25;5059016;28;20015;-56
2023/11/21 08:25:53;;;;;;;;;;;;;;;4.86;100.00;100610.25;5044356;28;20035;-57
2023/11/21 08:28:22;;;;;;;;;;;;;;;4.88;100.00;100614.50;5054432;28;20299;-56
2023/11/21 08:30:49;;;;;;;;;;;;;;;4.85;100.00;100605.94;5058208;28;20023;-56
2023/11/21 08:33:16;;;;;;;;;;;;;;;4.83;100.00;100606.84;5060249;28;19982;-54
2023/11/21 08:35:43;;;;;;;;;;;;;;;4.90;100.00;100610.06;5056492;28;19974;-51
2023/11/21 08:38:10;;;;;;;;;;;;;;;5.04;100.00;100612.19;5059674;28;20371;-52
2023/11/21 08:40:38;;;;;;;;;;;;;;;5.08;100.00;100619.84;5058666;28;19963;-54
2023/11/21 08:43:05;;;;;;;;;;;;;;;5.13;100.00;100621.44;5049608;28;19979;-55
2023/11/21 08:45:34;;;;;;;;;;;;;;;5.13;100.00;100622.28;5045057;28;19976;-54
2023/11/21 08:48:01;;;;;;;;;;;;;;;5.03;100.00;100623.53;5041865;28;19959;-55
2023/11/21 08:50:28;;;;;;;;;;;;;;;4.98;100.00;100625.47;5037752;28;20043;-54
2023/11/21 08:52:55;;;;;;;;;;;;;;;4.96;100.00;100635.13;5039878;28;19928;-56
2023/11/21 08:55:23;;;;;;;;;;;;;;;4.90;100.00;100637.91;5048615;28;20027;-52
2023/11/21 08:57:50;;;;;;;;;;;;;;;4.89;100.00;100646.66;5042682;28;20055;-54
2023/11/21 09:00:20;;;;;;;;;;;;;;;4.94;100.00;100648.19;5033217;28;20321;-54
2023/11/21 09:02:47;;;;;;;;;;;;;;;4.94;100.00;100650.81;5044620;28;19925;-55
2023/11/21 09:05:15;;;;;;;;;;;;;;;4.97;100.00;100649.84;5047366;28;20014;-55
2023/11/21 09:07:42;;;;;;;;;;;;;;;4.98;100.00;100655.00;5038439;28;19960;-56
2023/11/21 09:10:10;;;;;;;;;;;;;;;4.95;100.00;100659.47;5047733;28;20370;-54
2023/11/21 09:12:37;;;;;;;;;;;;;;;4.93;100.00;100663.91;5054282;28;20015;-53
2023/11/21 09:15:05;;;;;;;;;;;;;;;4.93;100.00;100662.16;5049594;28;19959;-53
2023/11/21 09:17:33;;;;;;;;;;;;;;;4.91;100.00;100677.03;5045739;28;19960;-56
2023/11/21 09:20:03;;;;;;;;;;;;;;;4.92;100.00;100678.72;5045640;28;20427;-56
2023/11/21 09:22:31;;;;;;;;;;;;;;;4.88;100.00;100682.31;5047844;28;19953;-54
2023/11/21 09:24:58;;;;;;;;;;;;;;;4.86;100.00;100681.50;5054868;28;20027;-54
2023/11/21 09:27:25;;;;;;;;;;;;;;;4.79;100.00;100683.50;5047970;28;20439;-54
2023/11/21 09:29:53;;;;;;;;;;;;;;;4.79;100.00;100685.25;5049164;28;19964;-56
2023/11/21 09:32:21;;;;;;;;;;;;;;;4.76;100.00;100687.97;5045919;28;20438;-53
2023/11/21 09:34:48;;;;;;;;;;;;;;;4.75;100.00;100689.72;5049618;28;19967;-56
2023/11/21 09:37:16;;;;;;;;;;;;;;;4.77;100.00;100700.97;5046346;28;19979;-56
2023/11/21 09:39:43;;;;;;;;;;;;;;;4.80;100.00;100700.84;5053785;28;20020;-55
2023/11/21 09:42:11;;;;;;;;;;;;;;;4.92;100.00;100701.34;5053262;28;19994;-54
2023/11/21 09:44:44;;;;;;;;;;;;;;;5.03;100.00;100707.88;5048071;28;20347;-54
2023/11/21 09:47:13;;;;;;;;;;;;;;;5.12;100.00;100711.06;5032439;28;19943;-55
2023/11/21 09:49:40;;;;;;;;;;;;;;;5.19;100.00;100705.59;5049889;28;20332;-53
2023/11/21 09:52:07;;;;;;;;;;;;;;;5.22;100.00;100720.28;5047502;28;19955;-51
2023/11/21 09:54:35;;;;;;;;;;;;;;;5.24;100.00;100721.09;5026950;28;20479;-51
2023/11/21 09:57:02;;;;;;;;;;;;;;;5.29;100.00;100725.25;5044690;28;19986;-54
2023/11/21 09:59:30;;;;;;;;;;;;;;;5.30;100.00;100726.94;5022839;28;20375;-53
2023/11/21 10:01:58;;;;;;;;;;;;;;;5.34;100.00;100720.69;5041030;28;20027;-53
2023/11/21 10:04:26;;;;;;;;;;;;;;;5.33;100.00;100726.00;5053917;28;19932;-54
2023/11/21 10:06:53;;;;;;;;;;;;;;;5.32;100.00;100722.53;5049863;28;21079;-57
2023/11/21 10:09:20;;;;;;;;;;;;;;;5.24;100.00;100723.72;5019584;28;19971;-49
2023/11/21 10:11:47;;;;;;;;;;;;;;;5.19;100.00;100723.88;5050686;28;19929;-54
2023/11/21 10:14:14;;;;;;;;;;;;;;;5.15;100.00;100729.25;5034530;28;19968;-53
2023/11/21 10:16:41;;;;;;;;;;;;;;;5.13;100.00;100731.03;5053660;28;19959;-52
2023/11/21 10:19:15;;;;;;;;;;;;;;;5.07;100.00;100732.09;5047753;28;20342;-51
2023/11/21 10:21:42;;;;;;;;;;;;;;;5.11;100.00;100731.09;5033778;28;20044;-52
2023/11/21 10:24:09;;;;;;;;;;;;;;;5.10;100.00;100724.19;5047290;28;19947;-52
2023/11/21 10:26:37;;;;;;;;;;;;;;;5.06;100.00;100731.25;5045256;28;19929;-52
2023/11/21 10:29:21;;;;;;;;;;;;;;;5.01;100.00;100732.34;5041155;28;20298;-53
2023/11/21 10:31:51;;;;;;;;;;;;;;;5.05;100.00;100733.94;5054685;28;20019;-56
2023/11/21 10:34:19;;;;;;;;;;;;;;;5.05;100.00;100737.41;5050897;28;20469;-54
2023/11/21 10:36:46;;;;;;;;;;;;;;;5.10;100.00;100745.06;5051936;28;19950;-56
2023/11/21 10:39:17;;;;;;;;;;;;;;;5.06;100.00;100749.53;5057456;28;20059;-54
2023/11/21 10:41:45;;;;;;;;;;;;;;;5.02;100.00;100753.16;5046883;28;20439;-58
2023/11/21 10:44:20;;;;;;;;;;;;;;;4.99;100.00;100753.25;5050434;28;19925;-54
2023/11/21 10:46:52;;;;;;;;;;;;;;;4.95;100.00;100761.22;5050440;28;19965;-56
2023/11/21 10:49:20;;;;;;;;;;;;;;;4.93;100.00;100760.44;5050957;28;20387;-54
2023/11/21 10:51:48;;;;;;;;;;;;;;;4.91;100.00;100765.72;5043455;28;20516;-55
2023/11/21 10:54:17;;;;;;;;;;;;;;;4.92;100.00;100764.81;5046609;28;20020;-57
2023/11/21 10:56:44;;;;;;;;;;;;;;;4.82;100.00;100760.81;5045351;28;19925;-58
2023/11/21 10:59:14;;;;;;;;;;;;;;;4.88;100.00;100767.56;5026538;28;20391;-53
2023/11/21 11:01:45;;;;;;;;;;;;;;;4.80;100.00;100771.25;5040104;28;20449;-55
2023/11/21 11:04:16;;;;;;;;;;;;;;;4.87;100.00;100768.47;5046421;28;20317;-57
2023/11/21 11:06:43;;;;;;;;;;;;;;;4.80;100.00;100762.59;5051693;28;19973;-53
2023/11/21 11:09:12;;;;;;;;;;;;;;;4.75;100.00;100764.50;5056043;28;20343;-53
2023/11/21 11:11:44;;;;;;;;;;;;;;;4.71;100.00;100768.09;5037921;28;19978;-53
2023/11/21 11:14:12;;;;;;;;;;;;;;;4.69;100.00;100764.72;5050978;28;19982;-53
2023/11/21 11:16:45;;;;;;;;;;;;;;;4.73;100.00;100763.72;5049781;28;20008;-55
2023/11/21 11:19:13;;;;;;;;;;;;;;;4.75;100.00;100773.16;5058478;28;19974;-56
2023/11/21 11:21:58;;;;;;;;;;;;;;;4.78;100.00;100777.44;5052195;28;19983;-51
2023/11/21 11:24:33;;;;;;;;;;;;;;;4.79;100.00;100771.31;5049945;28;20614;-52
2023/11/21 11:27:21;;;;;;;;;;;;;;;4.74;100.00;100776.69;5082263;22;20309;-59
2023/11/21 11:30:03;;;;;;;;;;;;;;;4.72;100.00;100780.22;5073443;28;19975;-62
2023/11/21 11:32:39;;;;;;;;;;;;;;;4.72;100.00;100785.44;5091827;28;20015;-61
2023/11/21 11:35:08;;;;;;;;;;;;;;;4.74;100.00;100789.72;5068546;28;20472;-62
2023/11/21 11:37:35;;;;;;;;;;;;;;;4.78;100.00;100799.16;5049164;28;20016;-62
2023/11/21 11:40:06;;;;;;;;;;;;;;;4.79;100.00;100811.28;5050148;28;20019;-61
2023/11/21 11:42:33;;;;;;;;;;;;;;;4.76;100.00;100805.31;5058876;28;19953;-59
2023/11/21 11:45:00;;;;;;;;;;;;;;;4.71;100.00;100812.44;5046961;28;20015;-62
2023/11/21 11:47:32;;;;;;;;;;;;;;;4.73;100.00;100813.25;5069183;28;19925;-61
2023/11/21 11:50:08;;;;;;;;;;;;;;;4.71;100.00;100818.50;5062275;28;19925;-60
2023/11/21 11:52:36;;;;;;;;;;;;;;;4.75;100.00;100827.09;5060196;28;20596;-62
2023/11/21 11:55:04;;;;;;;;;;;;;;;4.75;100.00;100829.69;5062188;28;19968;-61
2023/11/21 11:57:32;;;;;;;;;;;;;;;4.70;100.00;100821.16;5059526;28;20458;-62
2023/11/21 12:00:26;;;;;;;;;;;;;;;4.68;100.00;100825.56;5065540;28;19978;-62
2023/11/21 12:03:05;;;;;;;;;;;;;;;4.71;100.00;100828.09;5060678;28;19928;-63
2023/11/21 12:05:33;;;;;;;;;;;;;;;4.68;100.00;100836.84;5057456;28;20015;-60
2023/11/21 12:08:01;;;;;;;;;;;;;;;4.61;100.00;100843.16;5058359;28;19967;-62
2023/11/21 12:10:29;;;;;;;;;;;;;;;4.61;100.00;100844.94;5054305;28;19932;-60
2023/11/21 12:12:56;;;;;;;;;;;;;;;4.64;100.00;100844.81;5060115;28;19925;-61
2023/11/21 12:15:23;;;;;;;;;;;;;;;4.58;100.00;100848.47;5047465;28;20031;-62
2023/11/21 12:17:50;;;;;;;;;;;;;;;4.57;100.00;100854.59;5057223;28;19999;-62
2023/11/21 12:20:21;;;;;;;;;;;;;;;4.62;100.00;100854.44;5059694;28;19964;-62
2023/11/21 12:22:51;;;;;;;;;;;;;;;4.58;100.00;100857.13;5053516;28;19956;-60
2023/11/21 12:25:19;;;;;;;;;;;;;;;4.55;100.00;100866.84;5055343;28;20468;-63
2023/11/21 12:27:49;;;;;;;;;;;;;;;4.54;100.00;100871.16;5047888;28;19929;-62
2023/11/21 12:30:19;;;;;;;;;;;;;;;4.53;100.00;100861.66;5050677;28;19948;-61
2023/11/21 12:32:51;;;;;;;;;;;;;;;4.53;100.00;100874.69;5061290;28;19971;-60
2023/11/21 12:35:22;;;;;;;;;;;;;;;4.51;100.00;100879.09;5056387;28;19996;-62
2023/11/21 12:37:49;;;;;;;;;;;;;;;4.49;100.00;100883.50;5057595;28;20173;-61
2023/11/21 12:40:17;;;;;;;;;;;;;;;4.41;100.00;100890.69;5064516;28;19971;-61